Bay City, TX

3:27 PM CST on February 14, 2016 (GMT -0600)
Oak Creek 2 | | Change Station
CLOSE
Current Station
Personal Weather Station
Location: Van Vleck, TX
Elevation: 62 ft
Nearby Weather Stations

Elev 62 ft 29.04 °N, 95.89 °W | Updated 7 seconds ago

Mostly Cloudy
Mostly Cloudy
73.0 °F
Feels Like 76 °F
N
2.7
Wind Variable Wind from ESE
Gusts 4.9 mph

Today
High -- | Low -- °F
--% Chance of Precip.
Yesterday
High -- | Low -- °F
Precip. -- in
Pressure 29.92 in
Visibility 10.0 miles
Clouds Mostly Cloudy 2900 ft
Mostly Cloudy 3700 ft
Mostly Cloudy 4300 ft
Heat Index 76 °F
Dew Point 59 °F
Humidity 62%
Rainfall 0.00 in
Snow Depth Not available.
7:03 AM 6:12 PM
Waxing Crescent, 45% visible
METAR KBYY 142115Z AUTO 17014G20KT 10SM BKN029 BKN037 BKN043 22/16 A2992 RMK AO2 T02240161
Pressure 29.92 in
Visibility 10.0 miles
Clouds Mostly Cloudy 2900 ft
Mostly Cloudy 3700 ft
Mostly Cloudy 4300 ft
Heat Index 76 °F
Dew Point 59 °F
Humidity 62%
Rainfall 0.00 in
Snow Depth Not available.
7:03 AM 6:12 PM
Waxing Crescent, 45% visible
METAR KBYY 142115Z AUTO 17014G20KT 10SM BKN029 BKN037 BKN043 22/16 A2992 RMK AO2 T02240161

10-Day Weather Forecast

Almanac

Astronomy

Feb. 14, 2016 Rise Set
Actual Time
Civil Twilight
Nautical Twilight
Astronomical Twilight
Moon
Length of Visible Light
Length of Day
Tomorrow will be .
, % of the Moon is Illuminated

Today's Extremes

State Highs State Lows

Community

WunderPhotos

Upload Photos

1,892,887 photos uploaded!

WunderBlog® & News

Nearby

Air Quality

  Air Quality AQ Index Pollutant
Not available.

Snow Depth

Station Depth Elevation

Earthquake Activity

City Distance Mag. Time & Date
Minimum magnitude displayed is 2.5.

Coastal Water Temperatures

Place Temperature

Stations

Nearby Weather Stations

Station Location Temp. Windchill Dew Point Humidity Wind Precip. Elev Updated Type
                   

Watches & Warnings

There are currently no watches in effect.